Riachao do Jacuipe, Brazil
Current Conditions -  °F | °C
As of 2:00 AM on Tuesday 21 Oct 2014 (Local Time) from SBSV Reporting Station
Scattered Clouds Scattered Clouds  
Wind Chill: 77°   Ceiling: Unl
Heat Index: 79°   Visibility: 6mi
Dew Point: 70°   Wind: 8mph
Humidity: 78%   Direction: 50°NE
Pressure: 29.85"   Gusts: NA
Location:  11.81°S, 39.39°W
Report Text: SBSV 210500Z 05007KT 9999 SCT017 25/21 Q1011
Loading
Personal Weather Stations






























Interactive Weather Map
Tropical Storm Tracking
New forecast layout! Learn more

10-Day Weather Forecast

Advertisements
Track Severe Weather on mobile